Aérodrome :
LOGIN :

S'inscrire | Disclaimer

   EN    FR    IT 

 










Légende :    VFR   VFR Marginal   IFR   IFR Intensif   IFR Très Intensif
Visi : 
Plafond : 
>= 8 km
>= 3000ft
5 à 8 km
1000 à 3000 ft
1500m à 5 km
500 à 1000 ft
800 à 1500m
200 à 500 ft
< 800m
< 200 ft
Symboles :   Orages  Brouillard  Fortes neiges  Fortes précipitations  Vent > 20 kt
SIGMETs :   Divers  Orages  Givrage  Turbulence  Onde Orograph.  Cendres Volcan.







- Altitude de l'aérodrome : 157 ft
- Code IATA : LIL
- Voir les cartes d'approche


LFQQ - Lille Lesquin

DERNIER METAR :
  • 261730Z AUTO 35014KT 9999 BKN044 BKN050 09/00 Q1015 BECMG VRB02KT

METARs EXPIRÉS :
  • 261700Z AUTO 34013KT 9999 FEW046 09/00 Q1015 NOSIG
  • 261630Z AUTO 36015KT 340V040 9999 SCT047 BKN056 09/M00 Q1014 NOSIG
  • 261600Z AUTO 01013KT 330V030 9999 FEW047/// ///TCU 10/01 Q1014 BECMG BKN040
  • 261530Z AUTO 07005KT 360V110 9999 FEW041/// SCT056/// ///TCU 09/02 Q1014 BECMG BKN040
  • 261500Z AUTO 08006KT 020V120 9999 -RA FEW028/// BKN038/// BKN047/// ///TCU 07/02 Q1014 TEMPO 2000 TSRAGS BKN030CB BECMG 32010KT
  • 261430Z AUTO 10006KT 9999 FEW013 BKN046 BKN058 08/02 Q1014 TEMPO 2000 TSRAGS BKN030CB BECMG 32010KT

TAF TAF LFQQ
Valide du 26 à 18h jusqu'au 28 à 00h UTC


261700Z 2618/2724 36013KT 9999 BKN040
BECMG 2619/2622 VRB02KT
BECMG 2707/2709 32012KT
TEMPO 2710/2713 4000 SHRA BKN025TCU
ATIS : +33 3 20 16 19 54
Pas de NOTAMs connus pour ce terrain.



MET'MAP, la Météo Aéronautique d'un coup d'oeil ! - Copyright ORBIFLY Décembre 2007 - Disclaimer

ORBIFLY MET'MAP TEAM :

Programmation & Développement : Alexandra Zaïnal
Conception & Développement : Baudouin d'Aumeries
Co-Programmation & Développement : Marc-Olivier Méhu
Soutien technique & logistique : Manuel Goepfert

Contact : metmap@orbifly.com




SOURCES & CREDITS :

   NOAA